sensor_id;sensor_type;location;lat;lon;timestamp;pressure;altitude;pressure_sealevel;temperature;humidity
77431;BME280;66498;48.564;19.272;2023-04-03T00:01:28;97450.41;;;2.53;64.56
77431;BME280;66498;48.564;19.272;2023-04-03T00:03:54;97453.28;;;2.58;64.69
77431;BME280;66498;48.564;19.272;2023-04-03T00:06:20;97454.13;;;2.58;64.86
77431;BME280;66498;48.564;19.272;2023-04-03T00:08:45;97449.63;;;2.52;64.66
77431;BME280;66498;48.564;19.272;2023-04-03T00:11:11;97451.75;;;2.72;64.26
77431;BME280;66498;48.564;19.272;2023-04-03T00:13:37;97445.47;;;2.66;64.07
77431;BME280;66498;48.564;19.272;2023-04-03T00:16:02;97443.91;;;2.57;63.87
77431;BME280;66498;48.564;19.272;2023-04-03T00:18:28;97444.38;;;2.60;64.04
77431;BME280;66498;48.564;19.272;2023-04-03T00:20:54;97444.59;;;2.51;64.57
77431;BME280;66498;48.564;19.272;2023-04-03T00:23:20;97443.16;;;2.48;64.42
77431;BME280;66498;48.564;19.272;2023-04-03T00:25:45;97454.72;;;2.37;64.91
77431;BME280;66498;48.564;19.272;2023-04-03T00:28:11;97450.16;;;2.40;64.27
77431;BME280;66498;48.564;19.272;2023-04-03T00:30:36;97451.91;;;2.47;63.77
77431;BME280;66498;48.564;19.272;2023-04-03T00:33:02;97448.09;;;2.35;64.64
77431;BME280;66498;48.564;19.272;2023-04-03T00:35:28;97451.66;;;2.34;65.34
77431;BME280;66498;48.564;19.272;2023-04-03T00:37:54;97445.31;;;2.36;64.65
77431;BME280;66498;48.564;19.272;2023-04-03T00:40:22;97453.97;;;2.29;65.10
77431;BME280;66498;48.564;19.272;2023-04-03T00:42:50;97453.44;;;2.33;64.85
77431;BME280;66498;48.564;19.272;2023-04-03T00:47:57;97450.09;;;2.25;65.23
77431;BME280;66498;48.564;19.272;2023-04-03T00:50:26;97450.31;;;2.15;66.17
77431;BME280;66498;48.564;19.272;2023-04-03T00:52:52;97449.97;;;2.18;65.15
77431;BME280;66498;48.564;19.272;2023-04-03T00:55:18;97453.25;;;2.12;65.97
77431;BME280;66498;48.564;19.272;2023-04-03T00:57:45;97450.66;;;2.12;65.73
77431;BME280;66498;48.564;19.272;2023-04-03T01:00:14;97446.13;;;2.14;65.52
77431;BME280;66498;48.564;19.272;2023-04-03T01:02:40;97452.44;;;2.11;65.51
77431;BME280;66498;48.564;19.272;2023-04-03T01:05:07;97449.66;;;2.13;65.56
77431;BME280;66498;48.564;19.272;2023-04-03T01:07:33;97448.25;;;2.02;66.68
77431;BME280;66498;48.564;19.272;2023-04-03T01:10:05;97459.75;;;2.08;65.82
77431;BME280;66498;48.564;19.272;2023-04-03T01:12:39;97449.59;;;1.98;66.48
77431;BME280;66498;48.564;19.272;2023-04-03T01:15:08;97456.09;;;1.94;66.18
77431;BME280;66498;48.564;19.272;2023-04-03T01:17:45;97450.44;;;1.82;66.80
77431;BME280;66498;48.564;19.272;2023-04-03T01:25:44;97448.19;;;1.79;67.25
77431;BME280;66498;48.564;19.272;2023-04-03T01:28:31;97451.44;;;1.81;67.20
77431;BME280;66498;48.564;19.272;2023-04-03T01:33:44;97449.84;;;1.72;68.04
77431;BME280;66498;48.564;19.272;2023-04-03T01:36:15;97445.13;;;1.76;67.95
77431;BME280;66498;48.564;19.272;2023-04-03T01:38:41;97452.56;;;1.79;67.90
77431;BME280;66498;48.564;19.272;2023-04-03T01:41:06;97450.50;;;1.74;67.93
77431;BME280;66498;48.564;19.272;2023-04-03T01:43:31;97449.22;;;1.70;67.86
77431;BME280;66498;48.564;19.272;2023-04-03T01:45:57;97445.03;;;1.53;68.35
77431;BME280;66498;48.564;19.272;2023-04-03T01:48:22;97453.09;;;1.66;68.20
77431;BME280;66498;48.564;19.272;2023-04-03T01:50:48;97450.22;;;1.61;68.37
77431;BME280;66498;48.564;19.272;2023-04-03T01:53:14;97450.63;;;1.81;67.47
77431;BME280;66498;48.564;19.272;2023-04-03T01:55:39;97453.75;;;1.68;69.03
77431;BME280;66498;48.564;19.272;2023-04-03T01:58:05;97454.25;;;1.63;68.82
77431;BME280;66498;48.564;19.272;2023-04-03T02:00:30;97457.63;;;1.64;68.57
77431;BME280;66498;48.564;19.272;2023-04-03T02:02:56;97458.31;;;1.58;68.53
77431;BME280;66498;48.564;19.272;2023-04-03T02:05:22;97451.47;;;1.65;68.94
77431;BME280;66498;48.564;19.272;2023-04-03T02:07:47;97449.59;;;1.51;69.67
77431;BME280;66498;48.564;19.272;2023-04-03T02:10:13;97456.06;;;1.47;69.56
77431;BME280;66498;48.564;19.272;2023-04-03T02:12:38;97453.63;;;1.53;68.95
77431;BME280;66498;48.564;19.272;2023-04-03T02:15:04;97452.47;;;1.56;68.81
77431;BME280;66498;48.564;19.272;2023-04-03T02:17:30;97450.72;;;1.56;69.18
77431;BME280;66498;48.564;19.272;2023-04-03T02:19:56;97449.41;;;1.52;68.31
77431;BME280;66498;48.564;19.272;2023-04-03T02:22:21;97449.94;;;1.39;69.36
77431;BME280;66498;48.564;19.272;2023-04-03T02:24:46;97448.59;;;1.60;68.50
77431;BME280;66498;48.564;19.272;2023-04-03T02:27:12;97442.13;;;1.64;68.40
77431;BME280;66498;48.564;19.272;2023-04-03T02:29:38;97438.88;;;1.62;67.91
77431;BME280;66498;48.564;19.272;2023-04-03T02:32:03;97443.63;;;1.50;68.03
77431;BME280;66498;48.564;19.272;2023-04-03T02:34:29;97442.81;;;1.50;68.49
77431;BME280;66498;48.564;19.272;2023-04-03T02:36:55;97447.19;;;1.41;69.24
77431;BME280;66498;48.564;19.272;2023-04-03T02:39:20;97447.84;;;1.35;70.04
77431;BME280;66498;48.564;19.272;2023-04-03T02:41:46;97448.78;;;1.42;69.54
77431;BME280;66498;48.564;19.272;2023-04-03T02:44:11;97440.59;;;1.30;70.06
77431;BME280;66498;48.564;19.272;2023-04-03T02:46:37;97447.22;;;1.33;69.44
77431;BME280;66498;48.564;19.272;2023-04-03T02:49:03;97444.78;;;1.31;69.47
77431;BME280;66498;48.564;19.272;2023-04-03T02:51:29;97451.06;;;1.29;69.37
77431;BME280;66498;48.564;19.272;2023-04-03T02:53:54;97448.50;;;1.29;69.36
77431;BME280;66498;48.564;19.272;2023-04-03T02:56:20;97449.97;;;1.15;70.42
77431;BME280;66498;48.564;19.272;2023-04-03T02:58:46;97453.84;;;1.11;70.51
77431;BME280;66498;48.564;19.272;2023-04-03T03:01:11;97446.75;;;1.05;70.90
77431;BME280;66498;48.564;19.272;2023-04-03T03:03:37;97445.13;;;1.04;71.08
77431;BME280;66498;48.564;19.272;2023-04-03T03:06:14;97453.84;;;1.11;70.72
77431;BME280;66498;48.564;19.272;2023-04-03T03:08:41;97449.00;;;1.16;70.30
77431;BME280;66498;48.564;19.272;2023-04-03T03:11:07;97447.56;;;1.05;70.75
77431;BME280;66498;48.564;19.272;2023-04-03T03:13:33;97457.25;;;1.03;71.10
77431;BME280;66498;48.564;19.272;2023-04-03T03:15:59;97456.13;;;0.89;71.30
77431;BME280;66498;48.564;19.272;2023-04-03T03:18:25;97461.44;;;1.04;71.15
77431;BME280;66498;48.564;19.272;2023-04-03T03:20:59;97457.09;;;1.05;70.56
77431;BME280;66498;48.564;19.272;2023-04-03T03:23:26;97462.75;;;1.00;71.06
77431;BME280;66498;48.564;19.272;2023-04-03T03:25:57;97462.56;;;1.02;70.97
77431;BME280;66498;48.564;19.272;2023-04-03T03:28:23;97458.72;;;0.98;70.58
77431;BME280;66498;48.564;19.272;2023-04-03T03:30:48;97466.63;;;1.12;70.08
77431;BME280;66498;48.564;19.272;2023-04-03T03:33:14;97465.97;;;1.10;70.56
77431;BME280;66498;48.564;19.272;2023-04-03T03:35:40;97463.56;;;1.17;69.78
77431;BME280;66498;48.564;19.272;2023-04-03T03:38:06;97464.69;;;0.98;70.37
77431;BME280;66498;48.564;19.272;2023-04-03T03:40:31;97462.44;;;1.03;70.69
77431;BME280;66498;48.564;19.272;2023-04-03T03:42:57;97459.03;;;1.11;69.42
77431;BME280;66498;48.564;19.272;2023-04-03T03:45:22;97450.66;;;1.09;69.62
77431;BME280;66498;48.564;19.272;2023-04-03T03:47:47;97455.81;;;1.01;70.56
77431;BME280;66498;48.564;19.272;2023-04-03T03:50:13;97458.38;;;1.01;70.75
77431;BME280;66498;48.564;19.272;2023-04-03T03:52:38;97455.00;;;1.00;70.73
77431;BME280;66498;48.564;19.272;2023-04-03T03:55:04;97462.75;;;1.00;69.47
77431;BME280;66498;48.564;19.272;2023-04-03T03:57:31;97464.53;;;0.83;70.78
77431;BME280;66498;48.564;19.272;2023-04-03T03:59:56;97463.72;;;0.91;70.47
77431;BME280;66498;48.564;19.272;2023-04-03T04:02:22;97471.16;;;1.02;69.62
77431;BME280;66498;48.564;19.272;2023-04-03T04:04:48;97473.91;;;0.92;70.31
77431;BME280;66498;48.564;19.272;2023-04-03T04:07:14;97477.28;;;0.93;69.62
77431;BME280;66498;48.564;19.272;2023-04-03T04:09:39;97479.22;;;0.83;69.76
77431;BME280;66498;48.564;19.272;2023-04-03T04:12:05;97476.31;;;0.78;70.96
77431;BME280;66498;48.564;19.272;2023-04-03T04:14:31;97481.97;;;0.89;70.37
77431;BME280;66498;48.564;19.272;2023-04-03T04:16:56;97479.25;;;0.99;69.36
77431;BME280;66498;48.564;19.272;2023-04-03T04:19:22;97476.81;;;1.14;67.43
77431;BME280;66498;48.564;19.272;2023-04-03T04:21:47;97473.72;;;1.10;68.62
77431;BME280;66498;48.564;19.272;2023-04-03T04:24:13;97473.56;;;1.12;68.27
77431;BME280;66498;48.564;19.272;2023-04-03T04:26:38;97482.47;;;1.09;69.04
77431;BME280;66498;48.564;19.272;2023-04-03T04:29:04;97482.16;;;0.96;69.44
77431;BME280;66498;48.564;19.272;2023-04-03T04:31:29;97489.09;;;1.04;69.15
77431;BME280;66498;48.564;19.272;2023-04-03T04:33:55;97481.16;;;1.05;68.06
77431;BME280;66498;48.564;19.272;2023-04-03T04:36:20;97486.69;;;1.02;69.30
77431;BME280;66498;48.564;19.272;2023-04-03T04:38:46;97486.19;;;0.90;69.52
77431;BME280;66498;48.564;19.272;2023-04-03T04:41:11;97479.41;;;1.06;68.80
77431;BME280;66498;48.564;19.272;2023-04-03T04:43:37;97484.88;;;0.94;69.58
77431;BME280;66498;48.564;19.272;2023-04-03T04:46:04;97485.22;;;1.00;69.03
77431;BME280;66498;48.564;19.272;2023-04-03T04:48:31;97488.09;;;1.05;69.08
77431;BME280;66498;48.564;19.272;2023-04-03T04:50:56;97488.75;;;1.15;68.04
77431;BME280;66498;48.564;19.272;2023-04-03T04:53:21;97494.91;;;1.14;67.86
77431;BME280;66498;48.564;19.272;2023-04-03T04:55:47;97496.50;;;1.15;68.31
77431;BME280;66498;48.564;19.272;2023-04-03T04:58:13;97507.50;;;1.33;67.19
77431;BME280;66498;48.564;19.272;2023-04-03T05:00:39;97500.72;;;1.24;68.17
77431;BME280;66498;48.564;19.272;2023-04-03T05:03:04;97504.13;;;1.33;67.45
77431;BME280;66498;48.564;19.272;2023-04-03T05:05:30;97498.91;;;1.41;67.19
77431;BME280;66498;48.564;19.272;2023-04-03T05:07:55;97500.06;;;1.47;66.84
77431;BME280;66498;48.564;19.272;2023-04-03T05:10:20;97508.44;;;1.49;67.00
77431;BME280;66498;48.564;19.272;2023-04-03T05:12:46;97506.81;;;1.56;67.28
77431;BME280;66498;48.564;19.272;2023-04-03T05:15:11;97503.56;;;1.62;66.86
77431;BME280;66498;48.564;19.272;2023-04-03T05:17:37;97509.22;;;1.74;66.09
77431;BME280;66498;48.564;19.272;2023-04-03T05:20:03;97507.03;;;1.94;65.97
77431;BME280;66498;48.564;19.272;2023-04-03T05:22:30;97523.38;;;1.94;65.23
77431;BME280;66498;48.564;19.272;2023-04-03T05:24:56;97515.59;;;2.02;65.40
77431;BME280;66498;48.564;19.272;2023-04-03T05:27:21;97515.13;;;2.38;63.28
77431;BME280;66498;48.564;19.272;2023-04-03T05:29:49;97516.97;;;2.52;62.17
77431;BME280;66498;48.564;19.272;2023-04-03T05:32:15;97508.66;;;2.65;60.13
77431;BME280;66498;48.564;19.272;2023-04-03T05:34:41;97506.66;;;2.75;60.63
77431;BME280;66498;48.564;19.272;2023-04-03T05:37:07;97511.94;;;2.82;59.56
77431;BME280;66498;48.564;19.272;2023-04-03T05:39:33;97515.94;;;2.93;58.70
77431;BME280;66498;48.564;19.272;2023-04-03T05:41:59;97510.50;;;3.02;58.37
77431;BME280;66498;48.564;19.272;2023-04-03T05:44:24;97509.09;;;3.15;58.84
77431;BME280;66498;48.564;19.272;2023-04-03T05:46:50;97515.28;;;3.51;57.37
77431;BME280;66498;48.564;19.272;2023-04-03T05:49:15;97505.63;;;3.75;57.05
77431;BME280;66498;48.564;19.272;2023-04-03T05:51:41;97505.19;;;3.71;55.83
77431;BME280;66498;48.564;19.272;2023-04-03T05:54:22;97506.72;;;3.81;56.27
77431;BME280;66498;48.564;19.272;2023-04-03T05:56:49;97516.38;;;3.87;55.50
77431;BME280;66498;48.564;19.272;2023-04-03T05:59:15;97504.19;;;3.87;55.78
77431;BME280;66498;48.564;19.272;2023-04-03T06:01:41;97500.53;;;3.82;55.37
77431;BME280;66498;48.564;19.272;2023-04-03T06:04:06;97511.97;;;3.72;56.58
77431;BME280;66498;48.564;19.272;2023-04-03T06:09:13;97508.84;;;4.07;57.30
77431;BME280;66498;48.564;19.272;2023-04-03T06:11:39;97509.47;;;4.09;55.03
77431;BME280;66498;48.564;19.272;2023-04-03T06:14:05;97502.56;;;4.16;53.63
77431;BME280;66498;48.564;19.272;2023-04-03T06:16:31;97506.84;;;4.23;53.62
77431;BME280;66498;48.564;19.272;2023-04-03T06:18:57;97512.69;;;4.25;54.12
77431;BME280;66498;48.564;19.272;2023-04-03T06:21:23;97509.69;;;4.43;53.27
77431;BME280;66498;48.564;19.272;2023-04-03T06:23:48;97498.81;;;4.18;51.97
77431;BME280;66498;48.564;19.272;2023-04-03T06:26:13;97505.59;;;4.34;53.62
77431;BME280;66498;48.564;19.272;2023-04-03T06:28:39;97506.78;;;4.32;52.01
77431;BME280;66498;48.564;19.272;2023-04-03T06:31:05;97518.03;;;4.39;52.21
77431;BME280;66498;48.564;19.272;2023-04-03T06:33:31;97519.44;;;4.56;54.21
77431;BME280;66498;48.564;19.272;2023-04-03T06:36:03;97505.84;;;4.39;52.62
77431;BME280;66498;48.564;19.272;2023-04-03T06:38:30;97514.09;;;4.43;52.81
77431;BME280;66498;48.564;19.272;2023-04-03T06:40:55;97497.00;;;4.55;52.88
77431;BME280;66498;48.564;19.272;2023-04-03T06:43:21;97508.19;;;4.34;50.97
77431;BME280;66498;48.564;19.272;2023-04-03T06:45:47;97506.31;;;4.64;52.16
77431;BME280;66498;48.564;19.272;2023-04-03T06:48:12;97508.31;;;4.62;51.61
77431;BME280;66498;48.564;19.272;2023-04-03T06:50:38;97519.75;;;4.68;50.85
77431;BME280;66498;48.564;19.272;2023-04-03T06:53:04;97517.44;;;4.73;51.86
77431;BME280;66498;48.564;19.272;2023-04-03T06:55:29;97507.03;;;4.58;49.59
77431;BME280;66498;48.564;19.272;2023-04-03T06:57:55;97524.34;;;4.66;50.38
77431;BME280;66498;48.564;19.272;2023-04-03T07:00:20;97519.41;;;4.92;50.12
77431;BME280;66498;48.564;19.272;2023-04-03T07:02:46;97530.06;;;4.97;49.45
77431;BME280;66498;48.564;19.272;2023-04-03T07:05:12;97533.59;;;5.11;49.10
77431;BME280;66498;48.564;19.272;2023-04-03T07:07:38;97534.34;;;5.27;50.30
77431;BME280;66498;48.564;19.272;2023-04-03T07:10:05;97535.69;;;5.44;47.78
77431;BME280;66498;48.564;19.272;2023-04-03T07:12:34;97539.84;;;5.38;48.11
77431;BME280;66498;48.564;19.272;2023-04-03T07:14:59;97545.78;;;5.32;48.95
77431;BME280;66498;48.564;19.272;2023-04-03T07:17:25;97556.38;;;5.52;48.13
77431;BME280;66498;48.564;19.272;2023-04-03T07:19:51;97550.63;;;5.35;48.76
77431;BME280;66498;48.564;19.272;2023-04-03T07:22:17;97553.47;;;5.19;48.20
77431;BME280;66498;48.564;19.272;2023-04-03T07:24:43;97546.16;;;5.29;48.11
77431;BME280;66498;48.564;19.272;2023-04-03T07:27:08;97547.59;;;5.32;47.21
77431;BME280;66498;48.564;19.272;2023-04-03T07:29:34;97543.81;;;5.34;47.10
77431;BME280;66498;48.564;19.272;2023-04-03T07:32:00;97547.06;;;5.43;46.44
77431;BME280;66498;48.564;19.272;2023-04-03T07:34:26;97549.34;;;5.53;47.48
77431;BME280;66498;48.564;19.272;2023-04-03T07:36:52;97541.75;;;5.51;47.68
77431;BME280;66498;48.564;19.272;2023-04-03T07:39:18;97540.38;;;5.55;46.62
77431;BME280;66498;48.564;19.272;2023-04-03T07:41:43;97546.16;;;5.29;46.72
77431;BME280;66498;48.564;19.272;2023-04-03T07:44:09;97556.94;;;5.48;47.17
77431;BME280;66498;48.564;19.272;2023-04-03T07:46:37;97548.34;;;5.47;45.12
77431;BME280;66498;48.564;19.272;2023-04-03T07:49:03;97556.16;;;5.75;45.58
77431;BME280;66498;48.564;19.272;2023-04-03T07:51:29;97558.75;;;5.75;46.49
77431;BME280;66498;48.564;19.272;2023-04-03T07:53:55;97537.44;;;5.65;45.20
77431;BME280;66498;48.564;19.272;2023-04-03T07:56:20;97560.09;;;5.92;46.22
77431;BME280;66498;48.564;19.272;2023-04-03T07:58:46;97554.00;;;6.13;44.64
77431;BME280;66498;48.564;19.272;2023-04-03T08:01:12;97543.31;;;6.43;44.43
77431;BME280;66498;48.564;19.272;2023-04-03T08:03:38;97546.69;;;5.96;44.62
77431;BME280;66498;48.564;19.272;2023-04-03T08:06:06;97546.31;;;6.40;44.90
77431;BME280;66498;48.564;19.272;2023-04-03T08:08:32;97545.06;;;6.29;42.82
77431;BME280;66498;48.564;19.272;2023-04-03T08:11:00;97547.53;;;6.44;43.99
77431;BME280;66498;48.564;19.272;2023-04-03T08:13:28;97551.88;;;6.85;43.64
77431;BME280;66498;48.564;19.272;2023-04-03T08:15:54;97549.13;;;6.45;45.07
77431;BME280;66498;48.564;19.272;2023-04-03T08:18:22;97546.25;;;6.75;42.69
77431;BME280;66498;48.564;19.272;2023-04-03T08:20:50;97546.00;;;6.15;43.68
77431;BME280;66498;48.564;19.272;2023-04-03T08:23:17;97546.63;;;5.89;44.48
77431;BME280;66498;48.564;19.272;2023-04-03T08:25:42;97555.44;;;6.16;44.30
77431;BME280;66498;48.564;19.272;2023-04-03T08:28:10;97554.69;;;5.94;44.59
77431;BME280;66498;48.564;19.272;2023-04-03T08:30:39;97555.06;;;5.91;45.75
77431;BME280;66498;48.564;19.272;2023-04-03T08:33:04;97553.66;;;6.23;44.71
77431;BME280;66498;48.564;19.272;2023-04-03T08:35:30;97553.94;;;6.00;44.57
77431;BME280;66498;48.564;19.272;2023-04-03T08:37:56;97562.53;;;6.29;45.04
77431;BME280;66498;48.564;19.272;2023-04-03T08:40:21;97563.84;;;6.11;43.71
77431;BME280;66498;48.564;19.272;2023-04-03T08:45:44;97551.84;;;6.24;43.84
77431;BME280;66498;48.564;19.272;2023-04-03T08:48:14;97561.94;;;6.33;45.69
77431;BME280;66498;48.564;19.272;2023-04-03T08:50:46;97556.91;;;6.80;44.85
77431;BME280;66498;48.564;19.272;2023-04-03T08:53:34;97558.47;;;6.68;43.93
77431;BME280;66498;48.564;19.272;2023-04-03T08:56:05;97549.66;;;6.82;45.00
77431;BME280;66498;48.564;19.272;2023-04-03T08:58:49;97556.53;;;6.90;43.30
77431;BME280;66498;48.564;19.272;2023-04-03T09:01:34;97556.16;;;7.13;44.57
77431;BME280;66498;48.564;19.272;2023-04-03T09:04:01;97549.53;;;7.17;43.01
77431;BME280;66498;48.564;19.272;2023-04-03T09:06:31;97556.38;;;6.43;45.21
77431;BME280;66498;48.564;19.272;2023-04-03T09:09:13;97550.69;;;6.33;44.23
77431;BME280;66498;48.564;19.272;2023-04-03T09:14:53;97547.19;;;6.12;46.13
77431;BME280;66498;48.564;19.272;2023-04-03T09:20:30;97545.50;;;6.33;44.79
77431;BME280;66498;48.564;19.272;2023-04-03T09:22:59;97540.59;;;6.71;43.61
77431;BME280;66498;48.564;19.272;2023-04-03T09:25:27;97558.00;;;7.39;43.43
77431;BME280;66498;48.564;19.272;2023-04-03T09:28:00;97552.78;;;7.78;43.59
77431;BME280;66498;48.564;19.272;2023-04-03T09:30:27;97558.81;;;7.72;42.97
77431;BME280;66498;48.564;19.272;2023-04-03T09:32:55;97570.06;;;7.53;43.20
77431;BME280;66498;48.564;19.272;2023-04-03T09:35:26;97566.44;;;7.74;41.72
77431;BME280;66498;48.564;19.272;2023-04-03T09:37:58;97575.06;;;7.81;41.24
77431;BME280;66498;48.564;19.272;2023-04-03T09:42:50;97563.63;;;7.49;41.83
77431;BME280;66498;48.564;19.272;2023-04-03T09:53:43;97560.41;;;7.60;43.48
77431;BME280;66498;48.564;19.272;2023-04-03T09:58:44;97559.88;;;6.70;43.93
77431;BME280;66498;48.564;19.272;2023-04-03T10:01:29;97567.38;;;6.86;45.47
77431;BME280;66498;48.564;19.272;2023-04-03T10:04:16;97577.84;;;7.00;44.90
77431;BME280;66498;48.564;19.272;2023-04-03T10:06:48;97564.03;;;7.39;44.02
77431;BME280;66498;48.564;19.272;2023-04-03T10:09:29;97567.59;;;7.05;44.41
77431;BME280;66498;48.564;19.272;2023-04-03T10:11:59;97577.78;;;6.80;45.12
77431;BME280;66498;48.564;19.272;2023-04-03T10:14:27;97571.84;;;7.19;43.25
77431;BME280;66498;48.564;19.272;2023-04-03T10:17:02;97567.44;;;7.53;44.83
77431;BME280;66498;48.564;19.272;2023-04-03T10:19:52;97575.16;;;6.80;43.69
77431;BME280;66498;48.564;19.272;2023-04-03T10:27:48;97573.47;;;7.53;44.83
77431;BME280;66498;48.564;19.272;2023-04-03T10:41:11;97573.88;;;7.50;43.09
77431;BME280;66498;48.564;19.272;2023-04-03T10:46:45;97583.75;;;7.75;43.62
77431;BME280;66498;48.564;19.272;2023-04-03T10:54:41;97578.53;;;7.62;41.52
77431;BME280;66498;48.564;19.272;2023-04-03T10:57:11;97586.13;;;7.96;41.69
77431;BME280;66498;48.564;19.272;2023-04-03T10:59:51;97588.00;;;8.67;40.67
77431;BME280;66498;48.564;19.272;2023-04-03T11:02:30;97583.84;;;8.53;42.72
77431;BME280;66498;48.564;19.272;2023-04-03T11:05:06;97568.41;;;8.12;41.33
77431;BME280;66498;48.564;19.272;2023-04-03T11:07:46;97580.69;;;7.98;44.20
77431;BME280;66498;48.564;19.272;2023-04-03T11:10:40;97581.06;;;8.15;43.00
77431;BME280;66498;48.564;19.272;2023-04-03T11:13:12;97574.75;;;8.56;41.25
77431;BME280;66498;48.564;19.272;2023-04-03T11:15:39;97582.84;;;8.47;40.29
77431;BME280;66498;48.564;19.272;2023-04-03T11:18:13;97582.22;;;8.45;40.84
77431;BME280;66498;48.564;19.272;2023-04-03T11:20:44;97579.22;;;8.28;40.99
77431;BME280;66498;48.564;19.272;2023-04-03T11:23:23;97578.91;;;8.05;40.33
77431;BME280;66498;48.564;19.272;2023-04-03T11:25:53;97580.22;;;8.47;40.77
77431;BME280;66498;48.564;19.272;2023-04-03T11:28:20;97574.78;;;8.42;39.81
77431;BME280;66498;48.564;19.272;2023-04-03T11:36:25;97572.09;;;7.44;40.83
77431;BME280;66498;48.564;19.272;2023-04-03T11:38:57;97568.47;;;7.58;41.59
77431;BME280;66498;48.564;19.272;2023-04-03T11:41:29;97560.41;;;7.47;40.84
77431;BME280;66498;48.564;19.272;2023-04-03T11:44:29;97556.81;;;7.61;40.78
77431;BME280;66498;48.564;19.272;2023-04-03T11:46:55;97572.06;;;7.71;41.31
77431;BME280;66498;48.564;19.272;2023-04-03T11:49:53;97584.31;;;8.03;42.53
77431;BME280;66498;48.564;19.272;2023-04-03T12:01:04;97572.25;;;8.09;40.62
77431;BME280;66498;48.564;19.272;2023-04-03T12:19:38;97566.22;;;7.16;42.08
77431;BME280;66498;48.564;19.272;2023-04-03T12:22:20;97569.19;;;7.06;40.73
77431;BME280;66498;48.564;19.272;2023-04-03T12:24:51;97564.94;;;6.92;41.53
77431;BME280;66498;48.564;19.272;2023-04-03T12:27:23;97565.28;;;6.69;40.86
77431;BME280;66498;48.564;19.272;2023-04-03T12:30:04;97563.72;;;6.81;41.32
77431;BME280;66498;48.564;19.272;2023-04-03T12:41:32;97562.63;;;7.43;40.41
77431;BME280;66498;48.564;19.272;2023-04-03T12:46:43;97571.66;;;7.21;40.67
77431;BME280;66498;48.564;19.272;2023-04-03T12:49:22;97573.19;;;6.95;40.92
77431;BME280;66498;48.564;19.272;2023-04-03T12:51:52;97562.00;;;7.15;41.60
77431;BME280;66498;48.564;19.272;2023-04-03T12:54:32;97569.94;;;6.80;41.56
77431;BME280;66498;48.564;19.272;2023-04-03T12:57:20;97557.13;;;6.37;40.63
77431;BME280;66498;48.564;19.272;2023-04-03T12:59:47;97562.22;;;6.58;41.14
77431;BME280;66498;48.564;19.272;2023-04-03T13:02:23;97573.38;;;6.32;41.68
77431;BME280;66498;48.564;19.272;2023-04-03T13:04:51;97569.47;;;6.56;39.78
77431;BME280;66498;48.564;19.272;2023-04-03T13:07:29;97562.06;;;6.19;40.65
77431;BME280;66498;48.564;19.272;2023-04-03T13:10:17;97581.81;;;6.96;41.26
77431;BME280;66498;48.564;19.272;2023-04-03T13:12:53;97572.59;;;6.93;39.61
77431;BME280;66498;48.564;19.272;2023-04-03T13:15:20;97564.13;;;6.78;39.83
77431;BME280;66498;48.564;19.272;2023-04-03T13:17:46;97562.50;;;6.70;38.89
77431;BME280;66498;48.564;19.272;2023-04-03T13:23:07;97558.56;;;7.07;39.65
77431;BME280;66498;48.564;19.272;2023-04-03T13:25:36;97555.28;;;6.79;38.80
77431;BME280;66498;48.564;19.272;2023-04-03T13:28:07;97557.78;;;6.46;40.39
77431;BME280;66498;48.564;19.272;2023-04-03T13:30:37;97571.31;;;6.69;41.93
77431;BME280;66498;48.564;19.272;2023-04-03T13:33:06;97577.53;;;6.75;42.02
77431;BME280;66498;48.564;19.272;2023-04-03T13:35:43;97578.59;;;6.32;40.55
77431;BME280;66498;48.564;19.272;2023-04-03T13:38:24;97577.59;;;6.40;40.60
77431;BME280;66498;48.564;19.272;2023-04-03T13:40:56;97567.34;;;5.97;40.91
77431;BME280;66498;48.564;19.272;2023-04-03T13:43:35;97558.97;;;6.02;41.63
77431;BME280;66498;48.564;19.272;2023-04-03T13:48:38;97567.78;;;6.07;41.77
77431;BME280;66498;48.564;19.272;2023-04-03T13:51:26;97569.13;;;5.97;41.73
77431;BME280;66498;48.564;19.272;2023-04-03T13:53:54;97564.81;;;6.10;42.36
77431;BME280;66498;48.564;19.272;2023-04-03T13:56:40;97570.47;;;6.21;42.42
77431;BME280;66498;48.564;19.272;2023-04-03T14:04:18;97567.78;;;6.35;41.02
77431;BME280;66498;48.564;19.272;2023-04-03T14:06:46;97564.22;;;6.08;40.72
77431;BME280;66498;48.564;19.272;2023-04-03T14:09:13;97581.16;;;6.26;41.26
77431;BME280;66498;48.564;19.272;2023-04-03T14:11:40;97569.91;;;6.67;41.15
77431;BME280;66498;48.564;19.272;2023-04-03T14:14:21;97567.53;;;6.78;39.74
77431;BME280;66498;48.564;19.272;2023-04-03T14:16:51;97560.59;;;6.51;40.29
77431;BME280;66498;48.564;19.272;2023-04-03T14:19:21;97569.22;;;6.10;41.13
77431;BME280;66498;48.564;19.272;2023-04-03T14:21:48;97569.19;;;6.03;41.88
77431;BME280;66498;48.564;19.272;2023-04-03T14:24:13;97567.09;;;5.64;42.28
77431;BME280;66498;48.564;19.272;2023-04-03T14:26:39;97557.59;;;5.56;42.45
77431;BME280;66498;48.564;19.272;2023-04-03T14:29:06;97556.56;;;5.51;42.91
77431;BME280;66498;48.564;19.272;2023-04-03T14:31:31;97572.16;;;5.72;42.68
77431;BME280;66498;48.564;19.272;2023-04-03T14:33:57;97569.22;;;5.54;42.92
77431;BME280;66498;48.564;19.272;2023-04-03T14:36:27;97574.28;;;5.62;42.82
77431;BME280;66498;48.564;19.272;2023-04-03T14:38:55;97564.19;;;5.52;42.71
77431;BME280;66498;48.564;19.272;2023-04-03T14:41:22;97561.69;;;5.93;41.62
77431;BME280;66498;48.564;19.272;2023-04-03T14:43:50;97570.03;;;6.52;42.07
77431;BME280;66498;48.564;19.272;2023-04-03T14:46:24;97562.91;;;5.41;42.47
77431;BME280;66498;48.564;19.272;2023-04-03T14:48:51;97570.94;;;5.46;43.88
77431;BME280;66498;48.564;19.272;2023-04-03T14:51:17;97571.22;;;5.30;43.46
77431;BME280;66498;48.564;19.272;2023-04-03T14:53:44;97580.94;;;5.00;44.37
77431;BME280;66498;48.564;19.272;2023-04-03T14:56:18;97578.00;;;4.88;44.45
77431;BME280;66498;48.564;19.272;2023-04-03T14:58:44;97583.41;;;4.72;44.73
77431;BME280;66498;48.564;19.272;2023-04-03T15:01:14;97585.78;;;4.52;44.84